createdAt,value
2023-01-22T00:01:05.879Z,102322.81
2023-01-22T00:03:09.735Z,102305.97
2023-01-22T00:05:15.493Z,102305.81
2023-01-22T00:07:21.105Z,102317.22
2023-01-22T00:09:25.729Z,102316.28
2023-01-22T00:11:35.709Z,102300.38
2023-01-22T00:13:45.960Z,102295.94
2023-01-22T00:19:27.792Z,102300.25
2023-01-22T00:21:31.744Z,102312.59
2023-01-22T00:23:44.976Z,102299.38
2023-01-22T00:25:49.345Z,102284.31
2023-01-22T00:28:00.694Z,102306.28
2023-01-22T00:30:14.612Z,102307.03
2023-01-22T00:32:26.852Z,102306.06
2023-01-22T00:34:36.265Z,102296.34
2023-01-22T00:36:44.448Z,102290.19
2023-01-22T00:38:53.984Z,102282.34
2023-01-22T00:41:06.823Z,102281.50
2023-01-22T00:43:28.485Z,102288.59
2023-01-22T00:45:37.459Z,102303.69
2023-01-22T00:47:45.120Z,102288.81
2023-01-22T00:50:05.411Z,102293.25
2023-01-22T00:52:29.364Z,102289.88
2023-01-22T00:54:55.673Z,102279.41
2023-01-22T00:57:14.642Z,102289.19
2023-01-22T00:59:33.783Z,102260.19
2023-01-22T01:01:45.942Z,102281.41
2023-01-22T01:04:01.567Z,102273.50
2023-01-22T01:06:19.208Z,102271.53
2023-01-22T01:08:33.503Z,102274.19
2023-01-22T01:10:49.510Z,102279.41
2023-01-22T01:12:59.406Z,102276.88
2023-01-22T01:15:17.109Z,102275.13
2023-01-22T01:17:24.639Z,102273.34
2023-01-22T01:19:28.455Z,102272.34
2023-01-22T01:21:32.894Z,102285.53
2023-01-22T01:23:49.327Z,102287.22
2023-01-22T01:26:25.257Z,102267.81
2023-01-22T01:28:43.064Z,102264.19
2023-01-22T01:30:50.935Z,102266.75
2023-01-22T01:33:13.095Z,102261.34
2023-01-22T01:35:24.288Z,102258.59
2023-01-22T01:37:36.000Z,102252.13
2023-01-22T01:39:48.182Z,102246.72
2023-01-22T01:41:58.185Z,102266.19
2023-01-22T01:44:15.653Z,102265.31
2023-01-22T01:46:26.306Z,102261.75
2023-01-22T01:48:36.201Z,102237.97
2023-01-22T01:51:02.253Z,102236.28
2023-01-22T01:53:25.531Z,102234.47
2023-01-22T01:55:41.755Z,102235.38
2023-01-22T01:57:52.620Z,102253.94
2023-01-22T02:00:15.724Z,102244.22
2023-01-22T02:02:25.978Z,102241.56
2023-01-22T02:04:53.408Z,102222.97
2023-01-22T02:07:09.865Z,102233.47
2023-01-22T02:09:19.982Z,102239.66
2023-01-22T02:11:41.810Z,102238.84
2023-01-22T02:14:09.134Z,102222.19
2023-01-22T02:16:45.067Z,102236.28
2023-01-22T02:19:12.242Z,102243.25
2023-01-22T02:21:58.057Z,102235.34
2023-01-22T02:24:18.092Z,102234.38
2023-01-22T02:26:38.364Z,102231.69
2023-01-22T02:28:48.389Z,102212.22
2023-01-22T02:30:53.463Z,102219.31
2023-01-22T02:32:57.967Z,102217.56
2023-01-22T02:35:05.716Z,102222.91
2023-01-22T02:37:15.822Z,102223.00
2023-01-22T02:39:24.334Z,102225.66
2023-01-22T02:41:32.336Z,102216.84
2023-01-22T02:43:41.182Z,102229.19
2023-01-22T02:45:45.848Z,102220.38
2023-01-22T02:47:50.115Z,102215.78
2023-01-22T02:49:55.175Z,102224.41
2023-01-22T02:51:59.286Z,102218.22
2023-01-22T02:54:05.334Z,102211.16
2023-01-22T02:56:12.309Z,102213.75
2023-01-22T02:58:17.710Z,102195.22
2023-01-22T03:00:22.162Z,102196.06
2023-01-22T03:02:28.109Z,102180.22
2023-01-22T03:04:32.887Z,102194.25
2023-01-22T03:06:41.496Z,102200.44
2023-01-22T03:08:46.092Z,102184.66
2023-01-22T03:10:51.725Z,102204.97
2023-01-22T03:13:13.345Z,102189.16
2023-01-22T03:15:35.441Z,102184.69
2023-01-22T03:17:57.243Z,102180.28
2023-01-22T03:20:19.230Z,102173.22
2023-01-22T03:22:24.672Z,102178.50
2023-01-22T03:24:29.314Z,102165.34
2023-01-22T03:26:35.113Z,102160.91
2023-01-22T03:28:40.816Z,102169.78
2023-01-22T03:30:45.152Z,102182.16
2023-01-22T03:32:50.112Z,102172.50
2023-01-22T03:34:54.563Z,102179.69
2023-01-22T03:37:05.122Z,102183.28
2023-01-22T03:39:09.931Z,102185.97
2023-01-22T03:41:15.914Z,102186.03
2023-01-22T03:43:23.094Z,102185.09
2023-01-22T03:45:27.678Z,102193.97
2023-01-22T03:47:32.410Z,102188.69
2023-01-22T03:49:38.247Z,102181.53
2023-01-22T03:51:43.375Z,102189.47
2023-01-22T03:53:48.817Z,102196.50
2023-01-22T03:56:00.975Z,102192.06
2023-01-22T03:58:07.657Z,102207.06
2023-01-22T04:00:16.205Z,102232.56
2023-01-22T04:02:21.176Z,102239.59
2023-01-22T04:04:52.720Z,102244.88
2023-01-22T04:06:57.203Z,102239.66
2023-01-22T04:09:01.798Z,102233.47
2023-01-22T04:11:10.347Z,102219.34
2023-01-22T04:13:15.744Z,102221.94
2023-01-22T04:15:24.125Z,102226.34
2023-01-22T04:17:30.490Z,102199.94
2023-01-22T04:19:49.897Z,102199.03
2023-01-22T04:22:29.839Z,102215.75
2023-01-22T04:24:35.006Z,102216.50
2023-01-22T04:26:42.859Z,102219.03
2023-01-22T04:28:49.539Z,102226.03
2023-01-22T04:30:58.243Z,102204.97
2023-01-22T04:33:21.968Z,102183.81
2023-01-22T04:35:42.564Z,102165.44
2023-01-22T04:37:46.901Z,102182.25
2023-01-22T04:39:51.424Z,102184.06
2023-01-22T04:41:55.867Z,102158.66
2023-01-22T04:44:00.085Z,102190.31
2023-01-22T04:46:07.960Z,102187.66
2023-01-22T04:48:13.257Z,102184.97
2023-01-22T04:50:22.070Z,102205.22
2023-01-22T04:52:26.567Z,102177.09
2023-01-22T04:54:31.221Z,102172.66
2023-01-22T04:56:35.825Z,102165.75
2023-01-22T04:58:40.564Z,102190.44
2023-01-22T05:00:45.145Z,102204.56
2023-01-22T05:02:50.996Z,102203.75
2023-01-22T05:04:55.557Z,102217.81
2023-01-22T05:07:00.307Z,102214.31
2023-01-22T05:09:05.115Z,102216.09
2023-01-22T05:11:20.941Z,102224.03
2023-01-22T05:13:31.084Z,102226.66
2023-01-22T05:15:36.113Z,102241.63
2023-01-22T05:17:45.319Z,102241.63
2023-01-22T05:19:51.024Z,102243.47
2023-01-22T05:21:58.369Z,102249.72
2023-01-22T05:24:03.393Z,102231.28
2023-01-22T05:26:07.858Z,102244.47
2023-01-22T05:28:17.798Z,102229.53
2023-01-22T05:30:44.718Z,102216.34
2023-01-22T05:33:11.251Z,102217.91
2023-01-22T05:35:17.750Z,102221.38
2023-01-22T05:37:22.890Z,102217.72
2023-01-22T05:39:28.661Z,102223.81
2023-01-22T05:41:35.703Z,102215.88
2023-01-22T05:43:40.138Z,102224.63
2023-01-22T05:45:48.596Z,102217.50
2023-01-22T05:48:11.410Z,102227.22
2023-01-22T05:50:30.955Z,102209.59
2023-01-22T05:52:42.813Z,102209.63
2023-01-22T05:54:47.055Z,102215.78
2023-01-22T05:56:51.681Z,102221.84
2023-01-22T05:58:56.011Z,102210.41
2023-01-22T06:01:01.023Z,102219.19
2023-01-22T06:03:10.818Z,102222.69
2023-01-22T06:05:23.422Z,102226.25
2023-01-22T06:07:37.606Z,102232.44
2023-01-22T06:09:42.191Z,102228.06
2023-01-22T06:11:46.892Z,102216.59
2023-01-22T06:13:51.979Z,102211.38
2023-01-22T06:16:01.182Z,102207.84
2023-01-22T06:18:32.389Z,102218.53
2023-01-22T06:20:38.824Z,102210.66
2023-01-22T06:22:46.777Z,102216.09
2023-01-22T06:24:50.907Z,102213.53
2023-01-22T06:26:56.838Z,102216.34
2023-01-22T06:29:08.943Z,102218.13
2023-01-22T06:31:14.000Z,102216.34
2023-01-22T06:33:18.605Z,102223.41
2023-01-22T06:35:23.387Z,102226.00
2023-01-22T06:37:27.853Z,102236.50
2023-01-22T06:39:33.536Z,102240.88
2023-01-22T06:41:44.549Z,102218.03
2023-01-22T06:43:52.143Z,102218.19
2023-01-22T06:45:57.187Z,102215.63
2023-01-22T06:48:20.147Z,102224.47
2023-01-22T06:50:24.792Z,102228.88
2023-01-22T06:52:29.454Z,102215.56
2023-01-22T06:54:35.457Z,102212.00
2023-01-22T06:56:43.083Z,102205.81
2023-01-22T06:58:50.103Z,102212.91
2023-01-22T07:00:53.998Z,102210.28
2023-01-22T07:02:58.312Z,102211.22
2023-01-22T07:05:02.837Z,102212.06
2023-01-22T07:07:07.155Z,102201.44
2023-01-22T07:09:11.725Z,102209.38
2023-01-22T07:11:17.280Z,102208.53
2023-01-22T07:13:22.230Z,102213.84
2023-01-22T07:15:26.978Z,102212.97
2023-01-22T07:17:31.305Z,102216.50
2023-01-22T07:19:35.706Z,102208.63
2023-01-22T07:21:40.231Z,102217.47
2023-01-22T07:23:45.027Z,102226.22
2023-01-22T07:25:49.347Z,102234.16
2023-01-22T07:28:00.632Z,102234.16
2023-01-22T07:30:10.610Z,102246.56
2023-01-22T07:32:27.239Z,102236.94
2023-01-22T07:34:56.593Z,102246.69
2023-01-22T07:37:04.062Z,102241.34
2023-01-22T07:45:01.054Z,102245.28
2023-01-22T07:48:08.126Z,102239.03
2023-01-22T07:50:14.840Z,102252.31
2023-01-22T07:52:22.437Z,102250.56
2023-01-22T07:54:29.577Z,102252.47
2023-01-22T07:56:40.026Z,102255.16
2023-01-22T07:58:44.921Z,102264.97
2023-01-22T08:00:50.210Z,102264.16
2023-01-22T08:02:55.106Z,102262.41
2023-01-22T08:04:59.263Z,102270.38
2023-01-22T08:07:03.711Z,102267.00
2023-01-22T08:09:08.325Z,102267.94
2023-01-22T08:11:12.387Z,102278.50
2023-01-22T08:13:16.715Z,102278.47
2023-01-22T08:15:20.623Z,102281.94
2023-01-22T08:17:26.273Z,102277.63
2023-01-22T08:19:30.181Z,102285.59
2023-01-22T08:21:35.264Z,102283.78
2023-01-22T08:23:39.185Z,102282.84
2023-01-22T08:25:42.949Z,102281.00
2023-01-22T08:27:46.740Z,102277.34
2023-01-22T08:29:51.339Z,102279.00
2023-01-22T08:31:55.511Z,102277.06
2023-01-22T08:34:02.409Z,102272.53
2023-01-22T08:36:08.085Z,102282.03
2023-01-22T08:38:14.007Z,102282.75
2023-01-22T08:40:18.515Z,102278.16
2023-01-22T08:42:22.836Z,102275.34
2023-01-22T08:44:27.767Z,102275.19
2023-01-22T08:46:32.195Z,102272.41
2023-01-22T08:48:36.531Z,102262.56
2023-01-22T08:50:42.859Z,102278.22
2023-01-22T08:52:48.219Z,102266.69
2023-01-22T08:54:52.994Z,102264.00
2023-01-22T08:56:59.849Z,102262.16
2023-01-22T08:59:06.991Z,102273.53
2023-01-22T09:01:17.395Z,102279.66
2023-01-22T09:03:21.937Z,102283.97
2023-01-22T09:05:26.256Z,102294.44
2023-01-22T09:07:31.750Z,102297.03
2023-01-22T09:09:35.912Z,102298.66
2023-01-22T09:11:40.506Z,102292.47
2023-01-22T09:13:44.779Z,102290.66
2023-01-22T09:15:50.230Z,102287.09
2023-01-22T09:17:54.437Z,102300.28
2023-01-22T09:19:58.481Z,102278.28
2023-01-22T09:22:06.650Z,102279.91
2023-01-22T09:24:12.399Z,102282.56
2023-01-22T09:26:16.902Z,102291.44
2023-01-22T09:28:21.497Z,102289.59
2023-01-22T09:30:26.552Z,102290.47
2023-01-22T09:32:31.346Z,102294.88
2023-01-22T09:34:35.220Z,102303.63
2023-01-22T09:36:39.299Z,102306.28
2023-01-22T09:38:44.565Z,102311.50
2023-01-22T09:40:55.238Z,102307.03
2023-01-22T09:43:05.655Z,102309.66
2023-01-22T09:45:45.164Z,102316.69
2023-01-22T09:47:53.350Z,102308.69
2023-01-22T09:50:02.433Z,102311.34
2023-01-22T09:52:08.408Z,102314.88
2023-01-22T09:54:15.904Z,102308.69
2023-01-22T09:56:27.931Z,102310.44
2023-01-22T09:58:33.579Z,102309.53
2023-01-22T10:00:41.926Z,102306.88
2023-01-22T10:02:50.911Z,102317.41
2023-01-22T10:05:00.753Z,102317.34
2023-01-22T10:07:09.792Z,102317.28
2023-01-22T10:09:16.814Z,102315.47
2023-01-22T10:11:22.548Z,102318.00
2023-01-22T10:13:29.816Z,102326.69
2023-01-22T10:15:35.328Z,102317.78
2023-01-22T10:17:41.499Z,102330.03
2023-01-22T10:19:49.555Z,102329.94
2023-01-22T10:22:00.882Z,102329.81
2023-01-22T10:24:05.921Z,102342.94
2023-01-22T10:26:15.217Z,102340.19
2023-01-22T10:28:26.417Z,102344.56
2023-01-22T10:30:31.024Z,102362.16
2023-01-22T10:32:35.096Z,102355.03
2023-01-22T10:34:39.756Z,102357.59
2023-01-22T10:36:51.421Z,102355.69
2023-01-22T10:39:08.773Z,102356.34
2023-01-22T10:41:19.999Z,102353.41
2023-01-22T10:43:34.196Z,102347.88
2023-01-22T10:45:38.528Z,102356.53
2023-01-22T10:47:42.983Z,102350.19
2023-01-22T10:49:47.097Z,102350.16
2023-01-22T10:51:56.321Z,102354.47
2023-01-22T10:54:01.595Z,102354.34
2023-01-22T10:56:11.606Z,102348.06
2023-01-22T10:58:21.906Z,102360.41
2023-01-22T11:00:46.752Z,102355.16
2023-01-22T11:02:57.335Z,102355.16
2023-01-22T11:05:16.275Z,102361.31
2023-01-22T11:07:24.957Z,102355.03
2023-01-22T11:09:38.588Z,102352.34
2023-01-22T11:11:47.958Z,102361.03
2023-01-22T11:13:56.831Z,102359.19
2023-01-22T11:16:11.312Z,102366.16
2023-01-22T11:18:20.752Z,102356.44
2023-01-22T11:20:30.371Z,102352.81
2023-01-22T11:22:39.410Z,102358.13
2023-01-22T11:24:48.014Z,102358.13
2023-01-22T11:27:06.619Z,102359.81
2023-01-22T11:29:22.447Z,102364.31
2023-01-22T11:31:44.612Z,102354.66
2023-01-22T11:34:12.795Z,102361.75
2023-01-22T11:36:23.725Z,102360.78
2023-01-22T11:38:40.419Z,102354.66
2023-01-22T11:41:03.712Z,102366.97
2023-01-22T11:43:24.475Z,102366.91
2023-01-22T11:45:48.282Z,102357.16
2023-01-22T11:48:15.557Z,102364.25
2023-01-22T11:50:28.812Z,102365.13
2023-01-22T11:52:45.229Z,102353.59
2023-01-22T11:55:03.790Z,102360.63
2023-01-22T11:57:18.850Z,102356.25
2023-01-22T11:59:34.136Z,102349.97
2023-01-22T12:02:00.167Z,102353.47
2023-01-22T12:04:29.568Z,102354.44
2023-01-22T12:06:57.678Z,102353.47
2023-01-22T12:09:12.039Z,102350.84
2023-01-22T12:11:31.522Z,102355.22
2023-01-22T12:13:54.166Z,102349.00
2023-01-22T12:16:05.636Z,102347.16
2023-01-22T12:18:42.062Z,102347.16
2023-01-22T12:21:05.890Z,102338.28
2023-01-22T12:23:16.021Z,102341.75
2023-01-22T12:25:26.510Z,102341.75
2023-01-22T12:27:36.952Z,102342.59
2023-01-22T12:29:44.790Z,102345.25
2023-01-22T12:31:52.849Z,102338.16
2023-01-22T12:33:59.921Z,102336.41
2023-01-22T12:36:08.509Z,102336.34
2023-01-22T12:38:22.154Z,102332.84
2023-01-22T12:40:41.307Z,102325.72
2023-01-22T12:42:52.312Z,102319.59
2023-01-22T12:45:07.329Z,102328.31
2023-01-22T12:47:21.277Z,102321.22
2023-01-22T12:49:27.371Z,102322.03
2023-01-22T12:51:40.588Z,102309.59
2023-01-22T12:53:44.597Z,102312.19
2023-01-22T12:56:00.101Z,102312.97
2023-01-22T12:58:04.950Z,102311.16
2023-01-22T13:00:26.009Z,102302.19
2023-01-22T13:02:39.538Z,102306.44
2023-01-22T13:04:43.697Z,102301.81
2023-01-22T13:06:49.611Z,102297.41
2023-01-22T13:08:53.970Z,102292.91
2023-01-22T13:11:00.175Z,102289.41
2023-01-22T13:13:07.304Z,102298.13
2023-01-22T13:15:21.103Z,102291.13
2023-01-22T13:17:30.653Z,102298.13
2023-01-22T13:19:42.624Z,102296.28
2023-01-22T13:21:50.360Z,102301.47
2023-01-22T13:24:00.323Z,102295.19
2023-01-22T13:26:06.867Z,102306.63
2023-01-22T13:28:17.501Z,102291.72
2023-01-22T13:30:27.261Z,102297.91
2023-01-22T13:32:31.779Z,102290.78
2023-01-22T13:34:36.429Z,102294.38
2023-01-22T13:36:47.499Z,102294.38
2023-01-22T13:38:58.135Z,102288.16
2023-01-22T13:41:09.016Z,102296.03
2023-01-22T13:43:19.658Z,102288.06
2023-01-22T13:45:27.902Z,102295.97
2023-01-22T13:47:36.618Z,102301.19
2023-01-22T13:49:44.915Z,102299.41
2023-01-22T13:51:49.952Z,102297.66
2023-01-22T13:53:57.022Z,102294.94
2023-01-22T13:56:02.022Z,102300.31
2023-01-22T13:58:07.800Z,102308.25
2023-01-22T14:00:25.734Z,102302.19
2023-01-22T14:02:32.866Z,102302.19
2023-01-22T14:04:38.609Z,102296.03
2023-01-22T14:06:48.903Z,102297.91
2023-01-22T14:08:56.924Z,102296.16
2023-01-22T14:11:02.618Z,102294.44
2023-01-22T14:13:09.776Z,102291.72
2023-01-22T14:15:19.416Z,102289.06
2023-01-22T14:17:26.191Z,102287.34
2023-01-22T14:19:30.700Z,102282.91
2023-01-22T14:21:36.092Z,102278.47
2023-01-22T14:23:42.123Z,102281.94
2023-01-22T14:25:50.420Z,102289.03
2023-01-22T14:27:55.435Z,102287.16
2023-01-22T14:30:00.313Z,102286.28
2023-01-22T14:32:04.082Z,102283.63
2023-01-22T14:34:08.411Z,102288.84
2023-01-22T14:36:12.360Z,102281.75
2023-01-22T14:38:16.590Z,102286.13
2023-01-22T14:40:22.296Z,102286.13
2023-01-22T14:42:29.088Z,102290.59
2023-01-22T14:44:32.993Z,102293.25
2023-01-22T14:46:38.395Z,102291.50
2023-01-22T14:48:42.823Z,102288.00
2023-01-22T14:50:47.230Z,102301.25
2023-01-22T14:52:52.801Z,102301.28
2023-01-22T14:54:57.622Z,102305.69
2023-01-22T14:57:03.701Z,102305.72
2023-01-22T14:59:09.346Z,102310.13
2023-01-22T15:01:19.001Z,102312.78
2023-01-22T15:03:24.298Z,102313.66
2023-01-22T15:05:28.405Z,102312.00
2023-01-22T15:07:34.035Z,102316.38
2023-01-22T15:09:38.427Z,102313.81
2023-01-22T15:11:42.714Z,102326.16
2023-01-22T15:13:47.116Z,102316.50
2023-01-22T15:15:52.536Z,102316.59
2023-01-22T15:17:58.160Z,102317.56
2023-01-22T15:20:02.891Z,102321.97
2023-01-22T15:22:07.071Z,102318.47
2023-01-22T15:24:11.860Z,102311.44
2023-01-22T15:26:27.216Z,102316.75
2023-01-22T15:28:32.065Z,102315.91
2023-01-22T15:30:36.497Z,102321.19
2023-01-22T15:32:42.250Z,102315.00
2023-01-22T15:34:46.585Z,102312.44
2023-01-22T15:36:51.184Z,102309.78
2023-01-22T15:38:55.241Z,102307.13
2023-01-22T15:41:07.744Z,102304.47
2023-01-22T15:43:12.365Z,102308.03
2023-01-22T15:45:34.188Z,102314.22
2023-01-22T15:47:39.162Z,102317.72
2023-01-22T15:49:44.679Z,102326.59
2023-01-22T15:51:49.115Z,102330.19
2023-01-22T15:53:55.305Z,102329.31
2023-01-22T15:55:59.348Z,102338.22
2023-01-22T15:58:03.378Z,102339.97
2023-01-22T16:00:11.354Z,102348.81
2023-01-22T16:02:19.824Z,102349.72
2023-01-22T16:04:25.816Z,102348.84
2023-01-22T16:06:34.466Z,102354.16
2023-01-22T16:08:39.981Z,102351.50
2023-01-22T16:10:44.502Z,102354.16
2023-01-22T16:12:48.833Z,102356.78
2023-01-22T16:14:53.933Z,102358.53
2023-01-22T16:16:59.374Z,102362.97
2023-01-22T16:19:07.231Z,102366.53
2023-01-22T16:21:12.944Z,102371.00
2023-01-22T16:23:19.179Z,102369.25
2023-01-22T16:25:24.415Z,102379.84
2023-01-22T16:27:28.623Z,102379.91
2023-01-22T16:29:33.186Z,102377.28
2023-01-22T16:31:38.857Z,102378.25
2023-01-22T16:33:46.745Z,102385.34
2023-01-22T16:35:51.549Z,102390.69
2023-01-22T16:37:56.078Z,102395.06
2023-01-22T16:40:03.086Z,102394.28
2023-01-22T16:42:08.768Z,102392.53
2023-01-22T16:44:16.448Z,102389.94
2023-01-22T16:46:23.794Z,102398.81
2023-01-22T16:48:28.436Z,102400.63
2023-01-22T16:50:32.989Z,102405.84
2023-01-22T16:52:37.367Z,102408.56
2023-01-22T16:54:43.183Z,102401.53
2023-01-22T16:56:49.800Z,102393.63
2023-01-22T16:58:54.346Z,102400.66
2023-01-22T17:00:59.099Z,102400.66
2023-01-22T17:03:03.520Z,102401.59
2023-01-22T17:05:13.257Z,102405.09
2023-01-22T17:07:32.240Z,102399.78
2023-01-22T17:09:37.417Z,102400.66
2023-01-22T17:11:43.864Z,102388.34
2023-01-22T17:14:31.137Z,102397.19
2023-01-22T17:16:36.196Z,102392.75
2023-01-22T17:18:40.573Z,102401.66
2023-01-22T17:21:01.188Z,102399.91
2023-01-22T17:23:06.597Z,102398.19
2023-01-22T17:25:11.464Z,102402.56
2023-01-22T17:27:18.879Z,102410.50
2023-01-22T17:29:25.499Z,102410.44
2023-01-22T17:31:31.642Z,102423.69
2023-01-22T17:33:35.900Z,102417.53
2023-01-22T17:35:40.883Z,102414.06
2023-01-22T17:37:45.976Z,102413.09
2023-01-22T17:39:52.936Z,102415.81
2023-01-22T17:41:59.235Z,102401.66
2023-01-22T17:44:03.964Z,102389.31
2023-01-22T17:46:15.422Z,102390.22
2023-01-22T17:48:21.225Z,102381.44
2023-01-22T17:50:26.279Z,102375.25
2023-01-22T17:52:31.511Z,102385.00
2023-01-22T17:54:35.096Z,102383.19
2023-01-22T17:56:46.079Z,102371.81
2023-01-22T17:58:53.157Z,102374.69
2023-01-22T18:01:03.161Z,102372.50
2023-01-22T18:03:09.667Z,102387.00
2023-01-22T18:05:24.612Z,102383.66
2023-01-22T18:07:35.936Z,102378.63
2023-01-22T18:09:46.056Z,102353.34
2023-01-22T18:12:01.480Z,102354.56
2023-01-22T18:14:08.234Z,102365.28
2023-01-22T18:16:19.243Z,102383.94
2023-01-22T18:18:25.197Z,102400.72
2023-01-22T18:20:40.252Z,102402.56
2023-01-22T18:22:52.209Z,102399.09
2023-01-22T18:25:02.471Z,102394.03
2023-01-22T18:27:09.125Z,102402.06
2023-01-22T18:29:16.971Z,102417.03
2023-01-22T18:31:25.839Z,102424.09
2023-01-22T18:33:34.609Z,102414.53
2023-01-22T18:35:43.747Z,102418.09
2023-01-22T18:37:47.862Z,102417.28
2023-01-22T18:39:54.089Z,102424.34
2023-01-22T18:42:00.887Z,102431.38
2023-01-22T18:44:14.252Z,102423.44
2023-01-22T18:46:22.229Z,102421.75
2023-01-22T18:48:26.170Z,102427.16
2023-01-22T18:50:47.262Z,102432.44
2023-01-22T18:52:53.120Z,102437.69
2023-01-22T18:54:57.769Z,102436.78
2023-01-22T18:57:04.547Z,102442.88
2023-01-22T18:59:09.595Z,102451.66
2023-01-22T19:01:17.674Z,102454.31
2023-01-22T19:03:25.553Z,102457.78
2023-01-22T19:05:31.347Z,102456.09
2023-01-22T19:07:39.284Z,102461.38
2023-01-22T19:09:43.616Z,102463.13
2023-01-22T19:11:53.599Z,102457.84
2023-01-22T19:14:00.712Z,102459.56
2023-01-22T19:16:11.609Z,102466.56
2023-01-22T19:18:18.243Z,102471.00
2023-01-22T19:20:24.566Z,102470.16
2023-01-22T19:22:30.947Z,102476.31
2023-01-22T19:24:39.925Z,102463.19
2023-01-22T19:26:46.601Z,102466.78
2023-01-22T19:28:55.545Z,102470.34
2023-01-22T19:31:01.294Z,102467.75
2023-01-22T19:33:06.965Z,102469.63
2023-01-22T19:35:12.571Z,102460.81
2023-01-22T19:37:16.459Z,102459.97
2023-01-22T19:39:23.171Z,102450.31
2023-01-22T19:41:30.863Z,102452.16
2023-01-22T19:43:36.179Z,102461.06
2023-01-22T19:45:41.744Z,102463.75
2023-01-22T19:47:47.237Z,102462.03
2023-01-22T19:50:11.298Z,102459.47
2023-01-22T19:52:17.115Z,102465.84
2023-01-22T19:54:23.069Z,102469.44
2023-01-22T19:56:33.630Z,102465.94
2023-01-22T19:58:40.643Z,102467.63
2023-01-22T20:00:46.565Z,102466.47
2023-01-22T20:02:56.508Z,102464.44
2023-01-22T20:05:07.234Z,102475.63
2023-01-22T20:07:12.664Z,102482.44
2023-01-22T20:09:19.971Z,102494.72
2023-01-22T20:11:26.402Z,102492.06
2023-01-22T20:13:32.400Z,102491.31
2023-01-22T20:15:42.564Z,102499.34
2023-01-22T20:17:50.673Z,102500.28
2023-01-22T20:19:55.004Z,102501.22
2023-01-22T20:22:03.129Z,102503.03
2023-01-22T20:24:11.605Z,102512.72
2023-01-22T20:26:19.356Z,102515.38
2023-01-22T20:28:24.549Z,102514.41
2023-01-22T20:30:32.378Z,102516.16
2023-01-22T20:32:36.109Z,102518.78
2023-01-22T20:34:49.483Z,102516.94
2023-01-22T20:36:57.218Z,102512.56
2023-01-22T20:39:02.800Z,102511.75
2023-01-22T20:41:09.660Z,102507.38
2023-01-22T20:43:21.030Z,102509.22
2023-01-22T20:45:28.365Z,102511.81
2023-01-22T20:47:37.017Z,102507.38
2023-01-22T20:49:42.829Z,102507.28
2023-01-22T20:51:46.648Z,102514.28
2023-01-22T20:53:52.621Z,102510.75
2023-01-22T20:56:02.372Z,102508.16
2023-01-22T20:58:08.915Z,102505.56
2023-01-22T21:00:18.010Z,102508.22
2023-01-22T21:02:26.107Z,102513.53
2023-01-22T21:04:34.324Z,102511.75
2023-01-22T21:06:41.523Z,102517.91
2023-01-22T21:08:50.053Z,102510.94
2023-01-22T21:11:01.711Z,102512.88
2023-01-22T21:13:08.173Z,102512.91
2023-01-22T21:15:16.897Z,102517.34
2023-01-22T21:17:22.889Z,102521.78
2023-01-22T21:19:27.696Z,102525.25
2023-01-22T21:21:40.807Z,102516.56
2023-01-22T21:23:47.743Z,102521.88
2023-01-22T21:25:52.421Z,102519.25
2023-01-22T21:27:57.911Z,102514.88
2023-01-22T21:30:03.136Z,102511.31
2023-01-22T21:32:09.807Z,102520.09
2023-01-22T21:34:14.319Z,102519.97
2023-01-22T21:36:18.657Z,102527.81
2023-01-22T21:38:24.563Z,102530.38
2023-01-22T21:40:28.822Z,102536.41
2023-01-22T21:42:50.775Z,102537.25
2023-01-22T21:45:13.916Z,102524.88
2023-01-22T21:47:22.619Z,102524.88
2023-01-22T21:49:27.500Z,102517.78
2023-01-22T21:51:32.961Z,102513.41
2023-01-22T21:53:41.008Z,102517.78
2023-01-22T21:55:54.503Z,102516.03
2023-01-22T21:58:01.632Z,102518.69
2023-01-22T22:00:11.313Z,102520.41
2023-01-22T22:02:23.589Z,102520.41
2023-01-22T22:04:33.230Z,102517.78
2023-01-22T22:06:40.715Z,102516.03
2023-01-22T22:08:46.899Z,102519.59
2023-01-22T22:10:51.312Z,102524.88
2023-01-22T22:12:55.989Z,102523.09
2023-01-22T22:14:59.965Z,102523.91
2023-01-22T22:17:04.862Z,102526.47
2023-01-22T22:19:10.734Z,102528.19
2023-01-22T22:21:15.337Z,102530.78
2023-01-22T22:23:19.623Z,102537.81
2023-01-22T22:25:25.098Z,102529.78
2023-01-22T22:27:29.261Z,102540.25
2023-01-22T22:29:35.889Z,102540.25
2023-01-22T22:31:43.432Z,102541.09
2023-01-22T22:33:49.790Z,102546.31
2023-01-22T22:35:55.143Z,102545.38
2023-01-22T22:38:00.317Z,102549.69
2023-01-22T22:40:06.606Z,102548.75
2023-01-22T22:42:13.875Z,102557.47
2023-01-22T22:44:18.240Z,102561.03
2023-01-22T22:46:25.268Z,102566.38
2023-01-22T22:48:29.622Z,102560.28
2023-01-22T22:50:40.460Z,102565.56
2023-01-22T22:52:45.073Z,102566.44
2023-01-22T22:54:50.192Z,102561.13
2023-01-22T22:56:55.776Z,102564.69
2023-01-22T22:59:03.393Z,102567.31
2023-01-22T23:01:11.438Z,102571.72
2023-01-22T23:03:17.343Z,102573.56
2023-01-22T23:05:22.931Z,102569.25
2023-01-22T23:07:30.580Z,102574.53
2023-01-22T23:09:36.121Z,102572.78
2023-01-22T23:11:41.829Z,102575.50
2023-01-22T23:13:51.021Z,102564.00
2023-01-22T23:16:01.755Z,102568.47
2023-01-22T23:18:06.547Z,102557.88
2023-01-22T23:20:12.965Z,102555.22
2023-01-22T23:22:17.675Z,102555.28
2023-01-22T23:24:21.743Z,102560.63
2023-01-22T23:26:33.575Z,102565.19
2023-01-22T23:28:40.653Z,102567.88
2023-01-22T23:30:45.862Z,102568.84
2023-01-22T23:32:51.858Z,102555.66
2023-01-22T23:34:55.854Z,102546.00
2023-01-22T23:37:02.673Z,102526.72
2023-01-22T23:39:06.945Z,102530.28
2023-01-22T23:41:12.967Z,102527.63
2023-01-22T23:43:20.151Z,102531.19
2023-01-22T23:45:24.905Z,102525.22
2023-01-22T23:47:31.230Z,102533.31
2023-01-22T23:49:36.819Z,102545.66
2023-01-22T23:51:42.542Z,102538.66
2023-01-22T23:53:51.933Z,102542.31
2023-01-22T23:56:02.100Z,102537.03
2023-01-22T23:58:07.177Z,102537.03
